createdAt,value
2023-04-17T00:03:51.458Z,1.55
2023-04-17T00:08:55.174Z,2.70
2023-04-17T00:14:00.511Z,2.35
2023-04-17T00:19:04.183Z,1.40
2023-04-17T00:24:08.465Z,3.38
2023-04-17T00:29:13.925Z,2.90
2023-04-17T00:34:17.601Z,2.38
2023-04-17T00:39:21.267Z,3.58
2023-04-17T00:44:26.631Z,4.82
2023-04-17T00:49:30.875Z,4.00
2023-04-17T00:54:34.750Z,2.28
2023-04-17T00:59:40.822Z,2.03
2023-04-17T01:04:44.520Z,2.58
2023-04-17T01:09:48.143Z,2.55
2023-04-17T01:14:53.615Z,2.47
2023-04-17T01:19:57.917Z,4.93
2023-04-17T01:25:03.192Z,2.92
2023-04-17T01:30:07.865Z,1.70
2023-04-17T01:35:11.943Z,4.80
2023-04-17T01:40:17.410Z,5.13
2023-04-17T01:45:21.252Z,2.10
2023-04-17T01:50:24.942Z,3.33
2023-04-17T01:55:30.222Z,5.80
2023-04-17T02:00:33.888Z,14.05
2023-04-17T02:05:37.493Z,5.10
2023-04-17T02:10:43.053Z,5.43
2023-04-17T02:15:46.716Z,4.05
2023-04-17T02:20:50.333Z,3.70
2023-04-17T02:25:55.621Z,3.50
2023-04-17T02:30:59.764Z,3.67
2023-04-17T02:36:03.572Z,6.10
2023-04-17T02:41:08.892Z,4.65
2023-04-17T02:46:12.661Z,4.77
2023-04-17T02:51:16.372Z,4.57
2023-04-17T02:56:21.625Z,3.47
2023-04-17T03:01:25.361Z,3.97
2023-04-17T03:06:29.157Z,6.00
2023-04-17T03:11:34.556Z,7.45
2023-04-17T03:16:38.251Z,6.37
2023-04-17T03:21:41.932Z,6.45
2023-04-17T03:26:48.087Z,5.60
2023-04-17T03:36:54.676Z,6.43
2023-04-17T03:41:59.916Z,10.27
2023-04-17T03:47:03.576Z,7.30
2023-04-17T03:52:07.199Z,4.90
2023-04-17T03:57:12.422Z,4.40
2023-04-17T04:02:16.127Z,7.87
2023-04-17T04:07:19.860Z,6.30
2023-04-17T04:12:25.639Z,5.97
2023-04-17T04:17:29.282Z,5.55
2023-04-17T04:22:32.908Z,5.60
2023-04-17T04:27:39.121Z,4.40
2023-04-17T04:32:42.801Z,4.85
2023-04-17T04:37:46.431Z,4.95
2023-04-17T04:42:51.784Z,6.43
2023-04-17T04:47:55.492Z,5.03
2023-04-17T04:52:59.094Z,5.50
2023-04-17T04:58:05.204Z,4.13
2023-04-17T05:03:09.012Z,6.75
2023-04-17T05:08:12.800Z,6.47
2023-04-17T05:13:18.086Z,5.95
2023-04-17T05:18:21.678Z,5.03
2023-04-17T05:23:25.319Z,5.47
2023-04-17T05:28:30.572Z,6.35
2023-04-17T05:33:34.156Z,5.47
2023-04-17T05:38:37.795Z,4.28
2023-04-17T05:43:43.071Z,4.43
2023-04-17T05:48:46.695Z,4.27
2023-04-17T05:53:50.276Z,3.05
2023-04-17T05:58:55.550Z,3.83
2023-04-17T06:04:00.002Z,6.40
2023-04-17T06:14:09.797Z,5.38
2023-04-17T06:19:13.627Z,4.43
2023-04-17T06:24:17.577Z,4.88
2023-04-17T06:29:22.832Z,5.32
2023-04-17T06:34:26.511Z,6.73
2023-04-17T06:39:30.112Z,6.82
2023-04-17T06:44:35.499Z,4.75
2023-04-17T06:49:39.113Z,4.67
2023-04-17T06:54:42.720Z,4.32
2023-04-17T06:59:48.071Z,6.43
2023-04-17T07:04:51.759Z,4.30
2023-04-17T07:09:55.419Z,5.28
2023-04-17T07:15:00.982Z,5.72
2023-04-17T07:20:05.949Z,6.43
2023-04-17T07:25:09.992Z,4.47
2023-04-17T07:30:15.440Z,4.45
2023-04-17T07:35:19.243Z,4.17
2023-04-17T07:40:23.063Z,4.82
2023-04-17T07:45:29.254Z,3.72
2023-04-17T07:50:33.634Z,3.30
2023-04-17T07:55:37.303Z,4.60
2023-04-17T08:00:42.663Z,3.33
2023-04-17T08:05:46.323Z,4.47
2023-04-17T08:10:49.912Z,3.40
2023-04-17T08:15:55.172Z,4.10
2023-04-17T08:20:58.878Z,3.63
2023-04-17T08:26:02.498Z,5.55
2023-04-17T08:31:08.882Z,5.75
2023-04-17T08:36:12.534Z,5.47
2023-04-17T08:41:21.495Z,3.22
2023-04-17T08:46:27.767Z,3.08
2023-04-17T08:51:31.513Z,2.88
2023-04-17T08:56:35.173Z,4.32
2023-04-17T09:01:40.461Z,3.08
2023-04-17T09:06:53.394Z,2.80
2023-04-17T09:12:20.737Z,3.22
2023-04-17T09:17:35.556Z,3.13
2023-04-17T09:22:39.983Z,5.00
2023-04-17T09:27:43.622Z,3.95
2023-04-17T09:32:48.955Z,4.18
2023-04-17T09:37:53.672Z,4.03
2023-04-17T09:42:59.376Z,3.30
2023-04-17T09:48:07.487Z,2.67
2023-04-17T09:53:11.253Z,3.80
2023-04-17T09:58:15.221Z,3.25
2023-04-17T10:03:21.578Z,4.15
2023-04-17T10:08:25.550Z,3.88
2023-04-17T10:13:29.902Z,4.18
2023-04-17T10:18:35.177Z,3.20
2023-04-17T10:23:38.785Z,3.90
2023-04-17T10:28:49.543Z,5.05
2023-04-17T10:33:55.154Z,6.60
2023-04-17T10:39:14.272Z,5.73
2023-04-17T10:44:19.671Z,4.43
2023-04-17T10:49:25.037Z,4.43
2023-04-17T10:54:32.926Z,5.97
2023-04-17T10:59:36.564Z,4.97
2023-04-17T11:04:42.013Z,7.10
2023-04-17T11:09:52.673Z,5.57
2023-04-17T11:15:03.733Z,5.97
2023-04-17T11:20:10.240Z,7.75
2023-04-17T11:25:27.626Z,7.03
2023-04-17T11:30:33.009Z,6.78
2023-04-17T11:35:40.296Z,7.27
2023-04-17T11:40:44.988Z,7.90
2023-04-17T11:45:50.533Z,6.65
2023-04-17T11:50:58.548Z,8.07
2023-04-17T11:56:15.852Z,5.97
2023-04-17T12:01:21.230Z,10.00
2023-04-17T12:06:37.270Z,9.50
2023-04-17T12:11:40.893Z,9.45
2023-04-17T12:16:44.580Z,10.27
2023-04-17T12:21:49.913Z,10.73
2023-04-17T12:26:53.617Z,9.27
2023-04-17T12:31:57.344Z,11.85
2023-04-17T12:37:03.603Z,14.65
2023-04-17T12:47:10.083Z,14.23
2023-04-17T12:52:15.341Z,11.98
2023-04-17T12:57:19.063Z,8.80
2023-04-17T13:02:23.196Z,11.60
2023-04-17T13:07:29.576Z,15.43
2023-04-17T13:17:36.998Z,12.80
2023-04-17T13:22:42.292Z,12.57
2023-04-17T13:27:45.910Z,12.07
2023-04-17T13:32:50.256Z,14.05
2023-04-17T13:37:55.572Z,13.02
2023-04-17T13:42:59.185Z,11.73
2023-04-17T13:48:02.824Z,11.55
2023-04-17T13:53:09.479Z,12.68
2023-04-17T13:58:14.682Z,9.55
2023-04-17T14:03:18.444Z,10.60
2023-04-17T14:08:23.925Z,12.50
2023-04-17T14:13:27.646Z,13.30
2023-04-17T14:18:31.381Z,13.23
2023-04-17T14:23:36.683Z,12.90
2023-04-17T14:28:40.563Z,11.30
2023-04-17T14:33:44.169Z,11.18
2023-04-17T14:38:50.445Z,10.23
2023-04-17T14:48:57.049Z,11.10
2023-04-17T14:54:02.367Z,10.70
2023-04-17T14:59:06.029Z,10.53
2023-04-17T15:04:09.782Z,7.30
2023-04-17T15:09:15.468Z,12.25
2023-04-17T15:14:19.207Z,10.53
2023-04-17T15:19:22.835Z,9.70
2023-04-17T15:24:28.114Z,12.40
2023-04-17T15:29:31.807Z,12.67
2023-04-17T15:34:35.547Z,9.27
2023-04-17T15:39:41.499Z,7.88
2023-04-17T15:44:45.077Z,8.50
2023-04-17T15:49:48.703Z,9.77
2023-04-17T15:54:54.016Z,10.32
2023-04-17T15:59:57.726Z,8.57
2023-04-17T16:05:01.750Z,9.90
2023-04-17T16:10:08.425Z,10.00
2023-04-17T16:15:12.643Z,8.07
2023-04-17T16:20:16.397Z,12.35
2023-04-17T16:25:21.670Z,8.00
2023-04-17T16:30:25.257Z,11.30
2023-04-17T16:35:29.110Z,31.15
2023-04-17T16:40:34.415Z,6.07
2023-04-17T16:45:38.179Z,8.67
2023-04-17T16:50:41.849Z,10.10
2023-04-17T16:55:47.183Z,9.07
2023-04-17T17:00:50.918Z,7.60
2023-04-17T17:05:54.680Z,9.27
2023-04-17T17:11:00.036Z,8.38
2023-04-17T17:16:03.718Z,11.37
2023-04-17T17:21:07.448Z,9.38
2023-04-17T17:26:12.759Z,16.40
2023-04-17T17:31:16.401Z,9.77
2023-04-17T17:36:20.069Z,9.98
2023-04-17T17:41:25.399Z,11.10
2023-04-17T17:46:29.203Z,13.97
2023-04-17T17:51:32.951Z,6.53
2023-04-17T17:56:38.227Z,8.05
2023-04-17T18:01:41.906Z,8.10
2023-04-17T18:06:45.582Z,11.27
2023-04-17T18:11:50.842Z,8.38
2023-04-17T18:16:54.502Z,7.77
2023-04-17T18:21:58.138Z,9.50
2023-04-17T18:27:03.646Z,9.63
2023-04-17T18:32:07.327Z,9.60
2023-04-17T18:37:10.951Z,8.00
2023-04-17T18:42:16.243Z,7.22
2023-04-17T18:47:19.848Z,7.90
2023-04-17T18:52:23.700Z,7.60
2023-04-17T18:57:29.024Z,7.70
2023-04-17T19:02:32.834Z,9.27
2023-04-17T19:07:36.521Z,8.77
2023-04-17T19:12:41.782Z,9.43
2023-04-17T19:17:45.385Z,7.80
2023-04-17T19:22:49.034Z,9.98
2023-04-17T19:27:54.362Z,6.20
2023-04-17T19:32:58.138Z,9.48
2023-04-17T19:38:01.853Z,8.48
2023-04-17T19:43:08.650Z,7.43
2023-04-17T19:48:13.010Z,8.15
2023-04-17T19:53:16.603Z,6.95
2023-04-17T19:58:21.864Z,6.55
2023-04-17T20:03:26.574Z,8.10
2023-04-17T20:08:30.432Z,9.87
2023-04-17T20:13:35.704Z,5.95
2023-04-17T20:18:39.327Z,8.35
2023-04-17T20:23:42.963Z,6.90
2023-04-17T20:28:48.240Z,8.30
2023-04-17T20:33:51.893Z,7.80
2023-04-17T20:38:55.528Z,8.15
2023-04-17T20:44:01.570Z,6.65
2023-04-17T20:49:05.204Z,6.97
2023-04-17T20:54:08.809Z,9.88
2023-04-17T20:59:14.075Z,7.25
2023-04-17T21:04:17.893Z,7.60
2023-04-17T21:09:21.613Z,8.13
2023-04-17T21:14:26.893Z,7.13
2023-04-17T21:19:30.500Z,5.43
2023-04-17T21:24:34.363Z,7.95
2023-04-17T21:29:39.576Z,6.43
2023-04-17T21:34:43.172Z,7.40
2023-04-17T21:39:46.762Z,9.27
2023-04-17T21:44:52.034Z,7.38
2023-04-17T21:49:55.641Z,12.55
2023-04-17T21:54:59.246Z,9.63
2023-04-17T22:00:05.867Z,7.97
2023-04-17T22:05:09.902Z,8.82
2023-04-17T22:10:13.509Z,7.88
2023-04-17T22:15:18.892Z,7.75
2023-04-17T22:20:22.483Z,10.32
2023-04-17T22:25:26.103Z,9.52
2023-04-17T22:30:31.383Z,7.60
2023-04-17T22:35:35.096Z,10.48
2023-04-17T22:40:38.712Z,7.72
2023-04-17T22:46:09.182Z,6.90
2023-04-17T22:51:12.859Z,10.00
2023-04-17T22:56:16.461Z,7.43
2023-04-17T23:01:21.750Z,7.32
2023-04-17T23:06:25.416Z,8.20
2023-04-17T23:11:31.569Z,9.13
2023-04-17T23:16:36.857Z,7.03
2023-04-17T23:21:40.472Z,7.85
2023-04-17T23:26:44.075Z,8.35
2023-04-17T23:31:49.463Z,9.27
2023-04-17T23:36:53.138Z,8.73
2023-04-17T23:41:56.723Z,5.28
2023-04-17T23:47:04.171Z,8.98
2023-04-17T23:52:07.979Z,7.35
2023-04-17T23:57:11.585Z,5.15
